createdAt,value
2023-12-15T06:05:10.462Z,100.00
2023-12-15T06:15:13.027Z,100.00
2023-12-15T06:25:15.404Z,100.00
2023-12-15T06:35:18.631Z,99.64
2023-12-15T06:45:20.957Z,97.01
2023-12-15T06:55:26.220Z,95.11
2023-12-15T07:05:28.599Z,93.72
2023-12-15T07:15:30.959Z,92.85
2023-12-15T07:25:33.310Z,92.45
2023-12-15T07:35:36.873Z,92.55
2023-12-15T07:45:39.230Z,92.77
2023-12-15T07:55:44.309Z,92.50
2023-12-15T08:05:46.719Z,92.04
2023-12-15T08:15:49.187Z,91.88
2023-12-15T08:25:51.590Z,91.67
2023-12-15T08:35:54.545Z,91.08
2023-12-15T08:45:57.261Z,90.49
2023-12-15T08:55:59.665Z,89.64
2023-12-15T09:16:07.485Z,89.01
2023-12-15T09:26:09.846Z,89.65
2023-12-15T09:36:12.377Z,88.25
2023-12-15T09:46:14.999Z,88.97
2023-12-15T09:56:17.984Z,85.44
2023-12-15T10:06:20.550Z,83.10
2023-12-15T10:16:22.956Z,81.65
2023-12-15T10:26:25.325Z,82.32
2023-12-15T10:36:27.697Z,83.10
2023-12-15T10:46:30.136Z,84.71
2023-12-15T10:56:39.251Z,84.76
2023-12-15T11:06:42.003Z,85.55
2023-12-15T11:16:46.619Z,86.16
2023-12-15T11:26:50.255Z,84.90
2023-12-15T11:47:14.889Z,80.03
2023-12-15T11:57:17.594Z,79.84
2023-12-15T12:07:21.519Z,81.61
2023-12-15T12:17:26.955Z,81.83
2023-12-15T12:27:36.727Z,77.49
2023-12-15T12:37:39.280Z,78.44
2023-12-15T12:47:43.125Z,79.06
2023-12-15T12:57:45.597Z,78.36
2023-12-15T13:07:47.955Z,77.49
2023-12-15T13:17:50.700Z,77.25
2023-12-15T13:27:53.535Z,76.80
2023-12-15T13:37:56.092Z,76.48
2023-12-15T13:47:58.684Z,76.36
2023-12-15T13:58:01.228Z,76.43
2023-12-15T14:08:08.202Z,76.58
2023-12-15T14:18:16.945Z,75.44
2023-12-15T14:28:19.400Z,76.28
2023-12-15T14:38:21.914Z,78.13
2023-12-15T14:48:24.514Z,78.65
2023-12-15T14:58:27.028Z,78.29
2023-12-15T15:08:29.465Z,78.78
2023-12-15T15:18:33.923Z,80.19
2023-12-15T15:28:36.243Z,83.02
2023-12-15T15:38:38.740Z,83.60
2023-12-15T15:48:41.287Z,83.82
2023-12-15T15:58:44.348Z,85.12
2023-12-15T16:08:46.941Z,85.48
2023-12-15T16:18:49.858Z,86.50
2023-12-15T16:28:52.301Z,82.95
2023-12-15T16:38:54.671Z,82.63
2023-12-15T16:48:57.682Z,82.71
2023-12-15T16:59:00.102Z,82.51
2023-12-15T17:09:02.885Z,82.96
2023-12-15T17:19:05.511Z,82.61
2023-12-15T17:29:08.121Z,82.27
2023-12-15T17:39:10.919Z,82.98
2023-12-15T17:49:14.160Z,81.70
2023-12-15T17:59:16.661Z,81.46
2023-12-15T18:09:19.342Z,81.90
2023-12-15T18:19:23.287Z,82.96
2023-12-15T18:29:26.435Z,82.74
2023-12-15T18:39:29.122Z,83.56
2023-12-15T18:49:32.583Z,84.00
2023-12-15T18:59:34.929Z,83.60
2023-12-15T19:09:38.800Z,83.93
2023-12-15T19:19:42.394Z,84.27
2023-12-15T19:29:46.783Z,84.74
2023-12-15T19:39:50.710Z,85.83
2023-12-15T19:49:53.177Z,87.78
2023-12-15T19:59:56.166Z,87.49
2023-12-15T20:09:59.018Z,87.64
2023-12-15T20:20:01.527Z,87.74
2023-12-15T20:30:04.296Z,88.17
2023-12-15T20:40:07.541Z,87.71
2023-12-15T20:50:10.534Z,87.51
2023-12-15T21:00:15.109Z,88.48
2023-12-15T21:20:14.418Z,88.49
2023-12-15T21:30:19.070Z,87.97
2023-12-15T21:40:23.166Z,89.05
2023-12-15T21:50:26.612Z,88.68
2023-12-15T22:10:12.674Z,89.09
2023-12-15T22:20:15.176Z,89.17
2023-12-15T22:30:17.748Z,89.43
2023-12-15T22:40:20.146Z,88.97
2023-12-15T23:10:13.056Z,89.24
2023-12-15T23:20:15.739Z,89.04
2023-12-15T23:30:19.619Z,88.53
2023-12-15T23:40:22.219Z,87.83
2023-12-15T23:50:24.683Z,87.02
